Time,TemperatureF,DewpointF,PressureIn,WindDirection,WindDirectionDegrees,WindSpeedMPH,WindSpeedGustMPH,Humidity,HourlyPrecipIn,Conditions,Clouds,dailyrainin,SoftwareType,DateUTC
2013-06-18 00:01:00,75.8,29.2,29.55,ENE,71,3.0,5.0,18,0.00,,,0.00,Wunderground v.1.15,2013-06-18 06:01:00,
2013-06-18 00:06:00,76.3,34.6,29.55,ENE,71,0.0,5.0,22,0.00,,,0.00,Wunderground v.1.15,2013-06-18 06:06:00,
2013-06-18 00:11:00,75.1,33.6,29.54,ENE,68,3.0,4.0,22,0.00,,,0.00,Wunderground v.1.15,2013-06-18 06:11:00,
2013-06-18 00:16:00,74.7,30.9,29.54,NE,55,4.0,8.0,20,0.00,,,0.00,Wunderground v.1.15,2013-06-18 06:16:00,
2013-06-18 00:21:00,75.1,31.3,29.54,ENE,57,1.0,5.0,20,0.00,,,0.00,Wunderground v.1.15,2013-06-18 06:21:00,
2013-06-18 00:26:00,73.3,35.3,29.54,SSE,156,4.0,5.0,25,0.00,,,0.00,Wunderground v.1.15,2013-06-18 06:26:00,
2013-06-18 00:31:00,71.5,32.8,29.54,ESE,108,7.0,7.0,24,0.00,,,0.00,Wunderground v.1.15,2013-06-18 06:31:00,
2013-06-18 00:36:00,72.7,31.6,29.54,East,79,0.0,7.0,22,0.00,,,0.00,Wunderground v.1.15,2013-06-18 06:36:00,
2013-06-18 00:41:00,73.7,32.5,29.55,ESE,104,6.0,9.0,22,0.00,,,0.00,Wunderground v.1.15,2013-06-18 06:41:00,
2013-06-18 00:46:00,74.6,32.1,29.55,SE,128,6.0,10.0,21,0.00,,,0.00,Wunderground v.1.15,2013-06-18 06:46:00,
2013-06-18 00:51:00,75.1,32.5,29.55,ESE,109,3.0,7.0,21,0.00,,,0.00,Wunderground v.1.15,2013-06-18 06:51:00,
2013-06-18 00:56:00,74.7,32.1,29.54,SSE,165,0.0,13.0,21,0.00,,,0.00,Wunderground v.1.15,2013-06-18 06:56:00,
2013-06-18 01:01:00,74.2,32.9,29.54,SE,140,0.0,3.0,22,0.00,,,0.00,Wunderground v.1.15,2013-06-18 07:01:00,
2013-06-18 01:06:00,73.0,33.0,29.54,SSE,149,1.0,6.0,23,0.00,,,0.00,Wunderground v.1.15,2013-06-18 07:06:00,
2013-06-18 01:11:00,72.3,32.4,29.55,SE,144,4.0,6.0,23,0.00,,,0.00,Wunderground v.1.15,2013-06-18 07:11:00,
2013-06-18 01:16:00,72.1,32.2,29.55,SE,134,0.0,7.0,23,0.00,,,0.00,Wunderground v.1.15,2013-06-18 07:16:00,
2013-06-18 01:21:00,71.5,33.8,29.55,SE,134,0.0,2.0,25,0.00,,,0.00,Wunderground v.1.15,2013-06-18 07:21:00,
2013-06-18 01:26:00,69.3,33.9,29.55,SE,134,0.0,2.0,27,0.00,,,0.00,Wunderground v.1.15,2013-06-18 07:26:00,
2013-06-18 01:31:00,66.4,34.8,29.55,SE,134,0.0,0.0,31,0.00,,,0.00,Wunderground v.1.15,2013-06-18 07:31:00,
2013-06-18 01:36:00,64.5,34.7,29.55,SE,134,0.0,0.0,33,0.00,,,0.00,Wunderground v.1.15,2013-06-18 07:36:00,
2013-06-18 01:41:00,63.7,34.8,29.58,SE,134,0.0,0.0,34,0.00,,,0.00,Wunderground v.1.15,2013-06-18 07:41:00,
2013-06-18 01:47:00,62.7,36.7,29.58,SE,134,0.0,0.0,38,0.00,,,0.00,Wunderground v.1.15,2013-06-18 07:47:00,
2013-06-18 01:52:00,62.4,35.1,29.58,SE,134,0.0,0.0,36,0.00,,,0.00,Wunderground v.1.15,2013-06-18 07:52:00,
2013-06-18 01:57:00,61.8,36.6,29.58,SE,134,0.0,0.0,39,0.00,,,0.00,Wunderground v.1.15,2013-06-18 07:57:00,
2013-06-18 02:02:00,61.0,37.1,29.58,SE,134,0.0,0.0,41,0.00,,,0.00,Wunderground v.1.15,2013-06-18 08:02:00,
2013-06-18 02:07:00,61.5,35.6,29.58,SE,134,0.0,0.0,38,0.00,,,0.00,Wunderground v.1.15,2013-06-18 08:07:00,
2013-06-18 02:12:00,63.5,32.3,29.58,ESE,123,3.0,3.0,31,0.00,,,0.00,Wunderground v.1.15,2013-06-18 08:12:00,
2013-06-18 02:17:00,66.4,31.4,29.58,ESE,119,3.0,5.0,27,0.00,,,0.00,Wunderground v.1.15,2013-06-18 08:17:00,
2013-06-18 02:22:00,68.6,31.3,29.58,SE,133,1.0,6.0,25,0.00,,,0.00,Wunderground v.1.15,2013-06-18 08:22:00,
2013-06-18 02:27:00,69.8,32.4,29.55,NE,44,4.0,6.0,25,0.00,,,0.00,Wunderground v.1.15,2013-06-18 08:27:00,
2013-06-18 02:32:00,70.9,32.3,29.55,ENE,78,6.0,10.0,24,0.00,,,0.00,Wunderground v.1.15,2013-06-18 08:32:00,
2013-06-18 02:37:00,71.6,31.8,29.55,East,101,3.0,10.0,23,0.00,,,0.00,Wunderground v.1.15,2013-06-18 08:37:00,
2013-06-18 02:42:00,72.0,32.1,29.54,East,82,2.0,5.0,23,0.00,,,0.00,Wunderground v.1.15,2013-06-18 08:42:00,
2013-06-18 02:47:00,71.5,31.7,29.54,East,80,0.0,5.0,23,0.00,,,0.00,Wunderground v.1.15,2013-06-18 08:47:00,
2013-06-18 02:52:00,71.1,32.5,29.54,ESE,117,4.0,6.0,24,0.00,,,0.00,Wunderground v.1.15,2013-06-18 08:52:00,
2013-06-18 02:57:00,71.3,32.6,29.54,ESE,122,0.0,7.0,24,0.00,,,0.00,Wunderground v.1.15,2013-06-18 08:57:00,
2013-06-18 03:02:00,69.4,33.9,29.54,ESE,122,0.0,2.0,27,0.00,,,0.00,Wunderground v.1.15,2013-06-18 09:02:00,
2013-06-18 03:07:00,66.8,34.3,29.54,ESE,122,0.0,2.0,30,0.00,,,0.00,Wunderground v.1.15,2013-06-18 09:07:00,
2013-06-18 03:12:00,64.8,34.2,29.56,ESE,122,0.0,2.0,32,0.00,,,0.00,Wunderground v.1.15,2013-06-18 09:12:00,
2013-06-18 03:17:00,63.5,34.6,29.56,SE,131,3.0,5.0,34,0.00,,,0.00,Wunderground v.1.15,2013-06-18 09:17:00,
2013-06-18 03:22:00,62.4,34.4,29.56,SE,131,4.0,4.0,35,0.00,,,0.00,Wunderground v.1.15,2013-06-18 09:22:00,
2013-06-18 03:27:00,61.2,34.7,29.59,SE,131,0.0,4.0,37,0.00,,,0.00,Wunderground v.1.15,2013-06-18 09:27:00,
2013-06-18 03:32:00,60.4,34.7,29.59,SE,132,1.0,5.0,38,0.00,,,0.00,Wunderground v.1.15,2013-06-18 09:32:00,
2013-06-18 03:37:00,58.4,35.4,29.59,SE,132,0.0,5.0,42,0.00,,,0.00,Wunderground v.1.15,2013-06-18 09:37:00,
2013-06-18 03:42:00,57.3,35.0,29.61,SE,132,0.0,3.0,43,0.00,,,0.00,Wunderground v.1.15,2013-06-18 09:42:00,
2013-06-18 03:47:00,57.0,35.9,29.61,SE,132,0.0,3.0,45,0.00,,,0.00,Wunderground v.1.15,2013-06-18 09:47:00,
2013-06-18 03:52:00,56.0,36.0,29.61,SE,132,3.0,5.0,47,0.00,,,0.00,Wunderground v.1.15,2013-06-18 09:52:00,
2013-06-18 03:57:00,54.8,36.0,29.61,SE,144,0.0,5.0,49,0.00,,,0.00,Wunderground v.1.15,2013-06-18 09:57:00,
2013-06-18 04:02:00,54.4,36.1,29.61,SE,144,0.0,5.0,50,0.00,,,0.00,Wunderground v.1.15,2013-06-18 10:02:00,
2013-06-18 04:07:00,53.9,36.2,29.61,SE,145,2.0,5.0,51,0.00,,,0.00,Wunderground v.1.15,2013-06-18 10:07:00,
2013-06-18 04:12:00,55.9,35.4,29.61,SSE,157,5.0,6.0,46,0.00,,,0.00,Wunderground v.1.15,2013-06-18 10:12:00,
2013-06-18 04:17:00,58.0,34.4,29.61,SSE,157,0.0,6.0,41,0.00,,,0.00,Wunderground v.1.15,2013-06-18 10:17:00,
2013-06-18 04:22:00,58.7,35.0,29.61,SSE,157,0.0,2.0,41,0.00,,,0.00,Wunderground v.1.15,2013-06-18 10:22:00,
2013-06-18 04:27:00,58.4,34.8,29.61,SSE,157,0.0,2.0,41,0.00,,,0.00,Wunderground v.1.15,2013-06-18 10:27:00,
2013-06-18 04:32:00,57.6,35.2,29.61,SSE,157,3.0,6.0,43,0.00,,,0.00,Wunderground v.1.15,2013-06-18 10:32:00,
2013-06-18 04:37:00,57.3,35.0,29.61,SSE,157,0.0,6.0,43,0.00,,,0.00,Wunderground v.1.15,2013-06-18 10:37:00,
2013-06-18 04:42:00,57.5,35.2,29.61,SSE,157,0.0,3.0,43,0.00,,,0.00,Wunderground v.1.15,2013-06-18 10:42:00,
2013-06-18 04:47:00,58.0,35.0,29.61,SSE,157,0.0,3.0,42,0.00,,,0.00,Wunderground v.1.15,2013-06-18 10:47:00,
2013-06-18 04:52:00,58.0,35.0,29.61,SSE,157,0.0,1.0,42,0.00,,,0.00,Wunderground v.1.15,2013-06-18 10:52:00,
2013-06-18 04:57:00,58.1,35.1,29.62,SSE,157,0.0,3.0,42,0.00,,,0.00,Wunderground v.1.15,2013-06-18 10:57:00,
2013-06-18 05:02:00,57.6,36.4,29.62,SSE,157,0.0,0.0,45,0.00,,,0.00,Wunderground v.1.15,2013-06-18 11:02:00,
2013-06-18 05:07:00,57.0,35.3,29.62,SSE,157,0.0,0.0,44,0.00,,,0.00,Wunderground v.1.15,2013-06-18 11:07:00,
2013-06-18 05:12:00,56.2,35.7,29.62,SSE,157,0.0,0.0,46,0.00,,,0.00,Wunderground v.1.15,2013-06-18 11:12:00,
2013-06-18 05:17:00,55.0,35.7,29.62,SSE,157,0.0,0.0,48,0.00,,,0.00,Wunderground v.1.15,2013-06-18 11:17:00,
2013-06-18 05:22:00,53.8,36.1,29.62,SSE,157,0.0,0.0,51,0.00,,,0.00,Wunderground v.1.15,2013-06-18 11:22:00,
2013-06-18 05:27:00,52.8,35.6,29.66,SSE,157,0.0,0.0,52,0.00,,,0.00,Wunderground v.1.15,2013-06-18 11:27:00,
2013-06-18 05:32:00,52.0,35.4,29.66,SSE,157,0.0,0.0,53,0.00,,,0.00,Wunderground v.1.15,2013-06-18 11:32:00,
2013-06-18 05:37:00,51.9,35.3,29.66,SSE,157,0.0,0.0,53,0.00,,,0.00,Wunderground v.1.15,2013-06-18 11:37:00,
2013-06-18 05:42:00,51.7,35.6,29.67,SSE,157,0.0,1.0,54,0.00,,,0.00,Wunderground v.1.15,2013-06-18 11:42:00,
2013-06-18 05:47:00,52.2,35.6,29.67,SSE,157,0.0,1.0,53,0.00,,,0.00,Wunderground v.1.15,2013-06-18 11:47:00,
2013-06-18 05:52:00,52.5,34.9,29.67,SSE,157,0.0,5.0,51,0.00,,,0.00,Wunderground v.1.15,2013-06-18 11:52:00,
2013-06-18 05:57:00,52.6,35.0,29.66,SSE,157,0.0,5.0,51,0.00,,,0.00,Wunderground v.1.15,2013-06-18 11:57:00,
2013-06-18 06:03:00,52.3,34.7,29.66,SSE,157,2.0,2.0,51,0.00,,,0.00,Wunderground v.1.15,2013-06-18 12:03:00,
2013-06-18 06:08:00,52.2,35.6,29.66,South,171,2.0,6.0,53,0.00,,,0.00,Wunderground v.1.15,2013-06-18 12:08:00,
2013-06-18 06:13:00,52.9,35.2,29.67,South,171,4.0,5.0,51,0.00,,,0.00,Wunderground v.1.15,2013-06-18 12:13:00,
2013-06-18 06:18:00,52.9,35.7,29.67,South,171,4.0,5.0,52,0.00,,,0.00,Wunderground v.1.15,2013-06-18 12:18:00,
2013-06-18 06:23:00,53.1,35.9,29.67,South,171,0.0,4.0,52,0.00,,,0.00,Wunderground v.1.15,2013-06-18 12:23:00,
2013-06-18 06:28:00,53.8,35.6,29.70,South,171,4.0,5.0,50,0.00,,,0.00,Wunderground v.1.15,2013-06-18 12:28:00,
2013-06-18 06:33:00,55.4,34.9,29.70,South,172,3.0,5.0,46,0.00,,,0.00,Wunderground v.1.15,2013-06-18 12:33:00,
2013-06-18 06:38:00,56.9,36.3,29.70,South,172,3.0,5.0,46,0.00,,,0.00,Wunderground v.1.15,2013-06-18 12:38:00,
2013-06-18 06:43:00,58.0,36.2,29.68,South,172,0.0,2.0,44,0.00,,,0.00,Wunderground v.1.15,2013-06-18 12:43:00,
2013-06-18 06:48:00,58.7,36.2,29.68,South,172,0.0,2.0,43,0.00,,,0.00,Wunderground v.1.15,2013-06-18 12:48:00,
2013-06-18 06:53:00,59.6,37.1,29.68,South,174,4.0,5.0,43,0.00,,,0.00,Wunderground v.1.15,2013-06-18 12:53:00,
2013-06-18 06:58:00,61.8,33.8,29.67,South,169,4.0,14.0,35,0.00,,,0.00,Wunderground v.1.15,2013-06-18 12:58:00,
2013-06-18 07:03:00,64.0,32.7,29.67,SE,128,1.0,9.0,31,0.00,,,0.00,Wunderground v.1.15,2013-06-18 13:03:00,
2013-06-18 07:08:00,66.3,32.2,29.67,ENE,69,7.0,14.0,28,0.00,,,0.00,Wunderground v.1.15,2013-06-18 13:08:00,
2013-06-18 07:13:00,67.9,33.6,29.63,South,188,0.0,12.0,28,0.00,,,0.00,Wunderground v.1.15,2013-06-18 13:13:00,
2013-06-18 07:18:00,68.8,34.3,29.63,East,100,2.0,12.0,28,0.00,,,0.00,Wunderground v.1.15,2013-06-18 13:18:00,
2013-06-18 07:23:00,69.4,33.9,29.63,East,89,0.0,12.0,27,0.00,,,0.00,Wunderground v.1.15,2013-06-18 13:23:00,
2013-06-18 07:28:00,69.9,33.4,29.64,ENE,70,5.0,12.0,26,0.00,,,0.00,Wunderground v.1.15,2013-06-18 13:28:00,
2013-06-18 07:33:00,70.1,33.6,29.64,East,79,5.0,13.0,26,0.00,,,0.00,Wunderground v.1.15,2013-06-18 13:33:00,
2013-06-18 07:38:00,70.1,33.6,29.64,ESE,103,5.0,15.0,26,0.00,,,0.00,Wunderground v.1.15,2013-06-18 13:38:00,
2013-06-18 07:43:00,70.3,33.8,29.64,ESE,117,1.0,15.0,26,0.00,,,0.00,Wunderground v.1.15,2013-06-18 13:43:00,
2013-06-18 07:48:00,70.6,34.0,29.64,East,87,0.0,15.0,26,0.00,,,0.00,Wunderground v.1.15,2013-06-18 13:48:00,
2013-06-18 07:53:00,70.8,34.2,29.64,SSE,148,0.0,6.0,26,0.00,,,0.00,Wunderground v.1.15,2013-06-18 13:53:00,
2013-06-18 07:58:00,71.3,34.6,29.64,ESE,121,6.0,12.0,26,0.00,,,0.00,Wunderground v.1.15,2013-06-18 13:58:00,
2013-06-18 08:03:00,71.1,33.5,29.64,ENE,77,7.0,13.0,25,0.00,,,0.00,Wunderground v.1.15,2013-06-18 14:03:00,
2013-06-18 08:08:00,71.3,33.6,29.64,East,97,0.0,14.0,25,0.00,,,0.00,Wunderground v.1.15,2013-06-18 14:08:00,
2013-06-18 08:13:00,71.6,32.9,29.63,ESE,117,6.0,11.0,24,0.00,,,0.00,Wunderground v.1.15,2013-06-18 14:13:00,
2013-06-18 08:18:00,71.8,32.0,29.63,East,80,6.0,15.0,23,0.00,,,0.00,Wunderground v.1.15,2013-06-18 14:18:00,
2013-06-18 08:23:00,72.3,32.4,29.63,East,101,2.0,10.0,23,0.00,,,0.00,Wunderground v.1.15,2013-06-18 14:23:00,
2013-06-18 08:28:00,72.5,32.6,29.67,ENE,73,5.0,14.0,23,0.00,,,0.00,Wunderground v.1.15,2013-06-18 14:28:00,
2013-06-18 08:33:00,72.8,32.8,29.67,ENE,74,5.0,15.0,23,0.00,,,0.00,Wunderground v.1.15,2013-06-18 14:33:00,
2013-06-18 08:38:00,73.2,34.2,29.67,SSE,148,2.0,15.0,24,0.00,,,0.00,Wunderground v.1.15,2013-06-18 14:38:00,
2013-06-18 08:43:00,73.7,33.6,29.67,ENE,59,5.0,8.0,23,0.00,,,0.00,Wunderground v.1.15,2013-06-18 14:43:00,
2013-06-18 08:48:00,74.4,33.1,29.67,East,92,0.0,9.0,22,0.00,,,0.00,Wunderground v.1.15,2013-06-18 14:48:00,
2013-06-18 08:53:00,74.9,32.3,29.67,ESE,102,6.0,12.0,21,0.00,,,0.00,Wunderground v.1.15,2013-06-18 14:53:00,
2013-06-18 08:58:00,75.3,32.6,29.66,East,84,0.0,13.0,21,0.00,,,0.00,Wunderground v.1.15,2013-06-18 14:58:00,
2013-06-18 09:03:00,75.8,33.1,29.66,ENE,66,6.0,12.0,21,0.00,,,0.00,Wunderground v.1.15,2013-06-18 15:03:00,
2013-06-18 09:08:00,76.5,33.6,29.66,ESE,107,3.0,12.0,21,0.00,,,0.00,Wunderground v.1.15,2013-06-18 15:08:00,
2013-06-18 09:13:00,76.7,33.8,29.65,ESE,108,2.0,7.0,21,0.00,,,0.00,Wunderground v.1.15,2013-06-18 15:13:00,
2013-06-18 09:18:00,77.2,34.2,29.65,ENE,60,0.0,7.0,21,0.00,,,0.00,Wunderground v.1.15,2013-06-18 15:18:00,
2013-06-18 09:23:00,77.7,33.4,29.65,ESE,119,0.0,7.0,20,0.00,,,0.00,Wunderground v.1.15,2013-06-18 15:23:00,
2013-06-18 09:28:00,77.9,33.6,29.65,East,92,2.0,13.0,20,0.00,,,0.00,Wunderground v.1.15,2013-06-18 15:28:00,
2013-06-18 09:33:00,78.6,34.2,29.65,East,86,0.0,4.0,20,0.00,,,0.00,Wunderground v.1.15,2013-06-18 15:33:00,
2013-06-18 09:38:00,79.2,33.4,29.65,East,100,2.0,9.0,19,0.00,,,0.00,Wunderground v.1.15,2013-06-18 15:38:00,
2013-06-18 09:43:00,79.8,33.9,29.63,ESE,102,6.0,8.0,19,0.00,,,0.00,Wunderground v.1.15,2013-06-18 15:43:00,
2013-06-18 09:48:00,80.7,33.2,29.63,ENE,62,1.0,8.0,18,0.00,,,0.00,Wunderground v.1.15,2013-06-18 15:48:00,
2013-06-18 09:53:00,81.6,34.0,29.63,NE,45,5.0,9.0,18,0.00,,,0.00,Wunderground v.1.15,2013-06-18 15:53:00,
2013-06-18 09:58:00,81.1,34.9,29.62,East,88,2.0,10.0,19,0.00,,,0.00,Wunderground v.1.15,2013-06-18 15:58:00,
2013-06-18 10:03:00,80.7,34.6,29.62,ENE,69,0.0,14.0,19,0.00,,,0.00,Wunderground v.1.15,2013-06-18 16:03:00,
2013-06-18 10:08:00,80.9,34.8,29.62,NE,34,3.0,14.0,19,0.00,,,0.00,Wunderground v.1.15,2013-06-18 16:08:00,
2013-06-18 10:13:00,81.1,33.6,29.61,ENE,67,4.0,11.0,18,0.00,,,0.00,Wunderground v.1.15,2013-06-18 16:13:00,
2013-06-18 10:18:00,81.4,33.8,29.61,NE,52,7.0,11.0,18,0.00,,,0.00,Wunderground v.1.15,2013-06-18 16:18:00,
2013-06-18 10:23:00,81.4,33.8,29.61,ENE,65,4.0,13.0,18,0.00,,,0.00,Wunderground v.1.15,2013-06-18 16:23:00,
2013-06-18 10:28:00,81.8,35.5,29.61,NE,40,3.0,13.0,19,0.00,,,0.00,Wunderground v.1.15,2013-06-18 16:28:00,
2013-06-18 10:33:00,81.4,33.8,29.61,North,9,7.0,11.0,18,0.00,,,0.00,Wunderground v.1.15,2013-06-18 16:33:00,
2013-06-18 10:38:00,81.8,35.5,29.61,NE,43,3.0,11.0,19,0.00,,,0.00,Wunderground v.1.15,2013-06-18 16:38:00,
2013-06-18 10:43:00,82.0,35.7,29.61,NE,55,2.0,7.0,19,0.00,,,0.00,Wunderground v.1.15,2013-06-18 16:43:00,
2013-06-18 10:48:00,82.4,36.0,29.61,North,355,6.0,9.0,19,0.00,,,0.00,Wunderground v.1.15,2013-06-18 16:48:00,
2013-06-18 10:53:00,82.8,36.3,29.61,North,360,6.0,9.0,19,0.00,,,0.00,Wunderground v.1.15,2013-06-18 16:53:00,
2013-06-18 10:58:00,83.4,39.4,29.61,NW,306,6.0,9.0,21,0.00,,,0.00,Wunderground v.1.15,2013-06-18 16:58:00,
2013-06-18 11:03:00,84.5,37.7,29.61,NNW,330,2.0,7.0,19,0.00,,,0.00,Wunderground v.1.15,2013-06-18 17:03:00,
2013-06-18 11:08:00,84.9,36.7,29.61,North,349,0.0,7.0,18,0.00,,,0.00,Wunderground v.1.15,2013-06-18 17:08:00,
2013-06-18 11:13:00,85.3,34.0,29.59,North,349,4.0,4.0,16,0.00,,,0.00,Wunderground v.1.15,2013-06-18 17:13:00,
2013-06-18 11:18:00,85.9,38.8,29.59,NNW,340,3.0,7.0,19,0.00,,,0.00,Wunderground v.1.15,2013-06-18 17:18:00,
2013-06-18 11:23:00,85.9,37.5,29.59,NNE,17,5.0,7.0,18,0.00,,,0.00,Wunderground v.1.15,2013-06-18 17:23:00,
2013-06-18 11:28:00,86.7,36.7,29.53,NNW,332,2.0,7.0,17,0.00,,,0.00,Wunderground v.1.15,2013-06-18 17:28:00,
2013-06-18 11:33:00,87.0,35.4,29.53,NNW,335,4.0,6.0,16,0.00,,,0.00,Wunderground v.1.15,2013-06-18 17:33:00,
2013-06-18 11:38:00,87.4,37.2,29.53,NNW,334,4.0,9.0,17,0.00,,,0.00,Wunderground v.1.15,2013-06-18 17:38:00,
2013-06-18 11:43:00,87.2,37.1,29.51,WNW,286,5.0,10.0,17,0.00,,,0.00,Wunderground v.1.15,2013-06-18 17:43:00,
2013-06-18 11:48:00,87.0,38.4,29.51,WNW,298,0.0,10.0,18,0.00,,,0.00,Wunderground v.1.15,2013-06-18 17:48:00,
2013-06-18 11:53:00,86.3,37.8,29.51,NNW,338,7.0,11.0,18,0.00,,,0.00,Wunderground v.1.15,2013-06-18 17:53:00,
2013-06-18 11:58:00,86.1,40.3,29.51,WNW,300,7.0,11.0,20,0.00,,,0.00,Wunderground v.1.15,2013-06-18 17:58:00,
2013-06-18 12:03:00,85.9,37.5,29.51,West,276,6.0,11.0,18,0.00,,,0.00,Wunderground v.1.15,2013-06-18 18:03:00,
2013-06-18 12:08:00,85.1,39.5,29.51,West,274,4.0,11.0,20,0.00,,,0.00,Wunderground v.1.15,2013-06-18 18:08:00,
2013-06-18 12:13:00,84.1,37.4,29.51,West,267,4.0,8.0,19,0.00,,,0.00,Wunderground v.1.15,2013-06-18 18:13:00,
2013-06-18 12:18:00,84.1,37.4,29.51,NW,306,0.0,10.0,19,0.00,,,0.00,Wunderground v.1.15,2013-06-18 18:18:00,
2013-06-18 12:23:00,84.7,37.9,29.51,NW,319,4.0,5.0,19,0.00,,,0.00,Wunderground v.1.15,2013-06-18 18:23:00,
2013-06-18 12:28:00,85.9,34.5,29.52,NNW,329,4.0,9.0,16,0.00,,,0.00,Wunderground v.1.15,2013-06-18 18:28:00,
2013-06-18 12:33:00,86.7,35.1,29.52,West,259,3.0,13.0,16,0.00,,,0.00,Wunderground v.1.15,2013-06-18 18:33:00,
2013-06-18 12:38:00,86.7,31.8,29.52,NW,310,6.0,17.0,14,0.00,,,0.00,Wunderground v.1.15,2013-06-18 18:38:00,
2013-06-18 12:43:00,86.3,33.2,29.51,WNW,293,0.0,10.0,15,0.00,,,0.00,Wunderground v.1.15,2013-06-18 18:43:00,
2013-06-18 12:48:00,85.9,34.5,29.51,WNW,289,5.0,10.0,16,0.00,,,0.00,Wunderground v.1.15,2013-06-18 18:48:00,
2013-06-18 12:53:00,86.5,31.6,29.51,NW,305,2.0,7.0,14,0.00,,,0.00,Wunderground v.1.15,2013-06-18 18:53:00,
2013-06-18 12:58:00,87.4,32.3,29.51,WNW,302,7.0,9.0,14,0.00,,,0.00,Wunderground v.1.15,2013-06-18 18:58:00,
2013-06-18 13:03:00,87.6,30.7,29.51,WNW,297,6.0,6.0,13,0.00,,,0.00,Wunderground v.1.15,2013-06-18 19:03:00,
2013-06-18 13:08:00,87.6,35.9,29.51,WNW,301,6.0,9.0,16,0.00,,,0.00,Wunderground v.1.15,2013-06-18 19:08:00,
2013-06-18 13:13:00,88.8,29.6,29.49,WNW,288,0.0,10.0,12,0.00,,,0.00,Wunderground v.1.15,2013-06-18 19:13:00,
2013-06-18 13:18:00,90.1,34.5,29.49,WNW,297,4.0,10.0,14,0.00,,,0.00,Wunderground v.1.15,2013-06-18 19:18:00,
2013-06-18 13:23:00,91.2,33.5,29.49,WNW,294,4.0,9.0,13,0.00,,,0.00,Wunderground v.1.15,2013-06-18 19:23:00,
2013-06-18 13:28:00,91.6,29.6,29.51,NW,312,8.0,12.0,11,0.00,,,0.00,Wunderground v.1.15,2013-06-18 19:28:00,
2013-06-18 13:33:00,92.1,30.0,29.51,West,276,0.0,11.0,11,0.00,,,0.00,Wunderground v.1.15,2013-06-18 19:33:00,
2013-06-18 13:38:00,92.9,28.3,29.51,South,189,9.0,14.0,10,0.00,,,0.00,Wunderground v.1.15,2013-06-18 19:38:00,
2013-06-18 13:43:00,92.9,25.7,29.50,SW,227,0.0,18.0,9,0.00,,,0.00,Wunderground v.1.15,2013-06-18 19:43:00,
2013-06-18 13:49:00,93.2,28.5,29.50,SW,224,6.0,18.0,10,0.00,,,0.00,Wunderground v.1.15,2013-06-18 19:49:00,
2013-06-18 13:54:00,93.2,26.0,29.50,NW,319,1.0,16.0,9,0.00,,,0.00,Wunderground v.1.15,2013-06-18 19:54:00,
2013-06-18 13:59:00,93.4,23.3,29.49,West,265,8.0,16.0,8,0.00,,,0.00,Wunderground v.1.15,2013-06-18 19:59:00,
2013-06-18 14:03:00,93.8,23.6,29.49,West,278,1.0,9.0,8,0.00,,,0.00,Wunderground v.1.15,2013-06-18 20:03:00,
2013-06-18 14:09:00,94.7,24.3,29.49,SE,144,16.0,16.0,8,0.00,,,0.00,Wunderground v.1.15,2013-06-18 20:09:00,
2013-06-18 14:14:00,94.5,20.9,29.48,SSW,205,1.0,20.0,7,0.00,,,0.00,Wunderground v.1.15,2013-06-18 20:14:00,
2013-06-18 14:19:00,94.5,24.1,29.48,South,186,11.0,20.0,8,0.00,,,0.00,Wunderground v.1.15,2013-06-18 20:19:00,
2013-06-18 14:24:00,94.3,20.8,29.48,WNW,284,3.0,10.0,7,0.00,,,0.00,Wunderground v.1.15,2013-06-18 20:24:00,
2013-06-18 14:29:00,94.3,24.0,29.47,WSW,246,3.0,10.0,8,0.00,,,0.00,Wunderground v.1.15,2013-06-18 20:29:00,
2013-06-18 14:34:00,94.7,21.1,29.47,SSE,164,4.0,18.0,7,0.00,,,0.00,Wunderground v.1.15,2013-06-18 20:34:00,
2013-06-18 14:39:00,94.5,24.1,29.47,South,177,6.0,18.0,8,0.00,,,0.00,Wunderground v.1.15,2013-06-18 20:39:00,
2013-06-18 14:44:00,94.3,20.8,29.46,SSE,155,14.0,25.0,7,0.00,,,0.00,Wunderground v.1.15,2013-06-18 20:44:00,
2013-06-18 14:49:00,93.6,20.3,29.46,SSE,167,9.0,25.0,7,0.00,,,0.00,Wunderground v.1.15,2013-06-18 20:49:00,
2013-06-18 14:54:00,93.4,20.1,29.46,SE,144,5.0,10.0,7,0.00,,,0.00,Wunderground v.1.15,2013-06-18 20:54:00,
2013-06-18 14:59:00,94.5,20.9,29.45,South,185,6.0,13.0,7,0.00,,,0.00,Wunderground v.1.15,2013-06-18 20:59:00,
2013-06-18 15:04:00,94.3,17.2,29.45,South,180,9.0,18.0,6,0.00,,,0.00,Wunderground v.1.15,2013-06-18 21:04:00,
2013-06-18 15:09:00,94.0,20.6,29.45,SE,128,11.0,18.0,7,0.00,,,0.00,Wunderground v.1.15,2013-06-18 21:09:00,
2013-06-18 15:14:00,94.3,24.0,29.45,SSE,155,5.0,8.0,8,0.00,,,0.00,Wunderground v.1.15,2013-06-18 21:14:00,
2013-06-18 15:19:00,95.1,21.4,29.45,SW,229,15.0,16.0,7,0.00,,,0.00,Wunderground v.1.15,2013-06-18 21:19:00,
2013-06-18 15:24:00,95.1,21.4,29.45,SW,229,4.0,10.0,7,0.00,,,0.00,Wunderground v.1.15,2013-06-18 21:24:00,
2013-06-18 15:29:00,95.1,21.4,29.48,SSE,157,4.0,19.0,7,0.00,,,0.00,Wunderground v.1.15,2013-06-18 21:29:00,
2013-06-18 15:34:00,95.4,18.0,29.48,SSW,198,0.0,10.0,6,0.00,,,0.00,Wunderground v.1.15,2013-06-18 21:34:00,
2013-06-18 15:39:00,95.1,21.4,29.48,SSW,206,1.0,14.0,7,0.00,,,0.00,Wunderground v.1.15,2013-06-18 21:39:00,
2013-06-18 15:44:00,95.6,21.7,29.47,SSE,161,5.0,8.0,7,0.00,,,0.00,Wunderground v.1.15,2013-06-18 21:44:00,
2013-06-18 15:49:00,96.1,22.1,29.47,NW,313,6.0,12.0,7,0.00,,,0.00,Wunderground v.1.15,2013-06-18 21:49:00,
2013-06-18 15:54:00,96.3,22.2,29.47,South,183,6.0,11.0,7,0.00,,,0.00,Wunderground v.1.15,2013-06-18 21:54:00,
2013-06-18 15:59:00,95.4,21.6,29.47,South,185,9.0,19.0,7,0.00,,,0.00,Wunderground v.1.15,2013-06-18 21:59:00,
2013-06-18 16:04:00,94.7,17.5,29.47,SSE,160,12.0,21.0,6,0.00,,,0.00,Wunderground v.1.15,2013-06-18 22:04:00,
2013-06-18 16:09:00,93.8,20.4,29.47,SSE,148,14.0,21.0,7,0.00,,,0.00,Wunderground v.1.15,2013-06-18 22:09:00,
2013-06-18 16:14:00,93.8,20.4,29.47,South,184,4.0,12.0,7,0.00,,,0.00,Wunderground v.1.15,2013-06-18 22:14:00,
2013-06-18 16:19:00,92.5,22.6,29.47,SSW,202,3.0,12.0,8,0.00,,,0.00,Wunderground v.1.15,2013-06-18 22:19:00,
2013-06-18 16:24:00,92.3,19.3,29.47,SSE,149,11.0,19.0,7,0.00,,,0.00,Wunderground v.1.15,2013-06-18 22:24:00,
2013-06-18 16:29:00,92.5,22.6,29.45,SSW,200,6.0,19.0,8,0.00,,,0.00,Wunderground v.1.15,2013-06-18 22:29:00,
2013-06-18 16:34:00,92.7,19.6,29.45,South,177,1.0,13.0,7,0.00,,,0.00,Wunderground v.1.15,2013-06-18 22:34:00,
2013-06-18 16:39:00,93.2,26.0,29.45,WSW,241,1.0,13.0,9,0.00,,,0.00,Wunderground v.1.15,2013-06-18 22:39:00,
2013-06-18 16:44:00,92.7,22.8,29.45,SE,132,6.0,16.0,8,0.00,,,0.00,Wunderground v.1.15,2013-06-18 22:44:00,
2013-06-18 16:49:00,93.2,23.1,29.45,South,175,15.0,23.0,8,0.00,,,0.00,Wunderground v.1.15,2013-06-18 22:49:00,
2013-06-18 16:54:00,93.4,23.3,29.45,SSW,192,9.0,20.0,8,0.00,,,0.00,Wunderground v.1.15,2013-06-18 22:54:00,
2013-06-18 16:59:00,93.6,20.3,29.45,SSE,149,11.0,20.0,7,0.00,,,0.00,Wunderground v.1.15,2013-06-18 22:59:00,
2013-06-18 17:04:00,93.6,23.4,29.45,South,172,4.0,25.0,8,0.00,,,0.00,Wunderground v.1.15,2013-06-18 23:04:00,
2013-06-18 17:09:00,94.3,20.8,29.45,SE,130,7.0,25.0,7,0.00,,,0.00,Wunderground v.1.15,2013-06-18 23:09:00,
2013-06-18 17:14:00,94.0,20.6,29.43,SSW,193,13.0,13.0,7,0.00,,,0.00,Wunderground v.1.15,2013-06-18 23:14:00,
2013-06-18 17:19:00,93.8,16.8,29.43,SSE,161,4.0,17.0,6,0.00,,,0.00,Wunderground v.1.15,2013-06-18 23:19:00,
2013-06-18 17:24:00,93.8,16.8,29.43,SSE,167,4.0,15.0,6,0.00,,,0.00,Wunderground v.1.15,2013-06-18 23:24:00,
2013-06-18 17:29:00,92.9,19.8,29.45,SSE,162,10.0,20.0,7,0.00,,,0.00,Wunderground v.1.15,2013-06-18 23:29:00,
2013-06-18 17:34:00,92.7,19.6,29.45,South,188,9.0,14.0,7,0.00,,,0.00,Wunderground v.1.15,2013-06-18 23:34:00,
2013-06-18 17:39:00,92.5,19.5,29.45,South,190,2.0,18.0,7,0.00,,,0.00,Wunderground v.1.15,2013-06-18 23:39:00,
2013-06-18 17:44:00,92.7,19.6,29.45,SSW,192,2.0,15.0,7,0.00,,,0.00,Wunderground v.1.15,2013-06-18 23:44:00,
2013-06-18 17:49:00,92.7,19.6,29.45,SE,146,4.0,18.0,7,0.00,,,0.00,Wunderground v.1.15,2013-06-18 23:49:00,
2013-06-18 17:54:00,92.9,16.2,29.45,SSE,162,11.0,12.0,6,0.00,,,0.00,Wunderground v.1.15,2013-06-18 23:54:00,
2013-06-18 17:59:00,91.8,19.0,29.45,SSE,164,9.0,12.0,7,0.00,,,0.00,Wunderground v.1.15,2013-06-18 23:59:00,
2013-06-18 18:04:00,92.1,15.6,29.45,SSW,211,5.0,13.0,6,0.00,,,0.00,Wunderground v.1.15,2013-06-19 00:04:00,
2013-06-18 18:09:00,92.3,19.3,29.45,SSE,155,7.0,13.0,7,0.00,,,0.00,Wunderground v.1.15,2013-06-19 00:09:00,
2013-06-18 18:14:00,92.5,19.5,29.45,SSE,157,12.0,15.0,7,0.00,,,0.00,Wunderground v.1.15,2013-06-19 00:14:00,
2013-06-18 18:19:00,92.7,19.6,29.45,SSE,151,3.0,15.0,7,0.00,,,0.00,Wunderground v.1.15,2013-06-19 00:19:00,
2013-06-18 18:24:00,92.5,19.5,29.45,SW,224,3.0,15.0,7,0.00,,,0.00,Wunderground v.1.15,2013-06-19 00:24:00,
2013-06-18 18:29:00,92.1,19.2,29.38,South,190,5.0,15.0,7,0.00,,,0.00,Wunderground v.1.15,2013-06-19 00:29:00,
2013-06-18 18:34:00,92.1,15.6,29.38,SE,144,8.0,12.0,6,0.00,,,0.00,Wunderground v.1.15,2013-06-19 00:34:00,
2013-06-18 18:39:00,92.1,15.6,29.38,SSW,193,3.0,12.0,6,0.00,,,0.00,Wunderground v.1.15,2013-06-19 00:39:00,
2013-06-18 18:44:00,91.6,15.2,29.38,South,169,4.0,13.0,6,0.00,,,0.00,Wunderground v.1.15,2013-06-19 00:44:00,
2013-06-18 18:49:00,91.6,18.8,29.38,SW,215,10.0,13.0,7,0.00,,,0.00,Wunderground v.1.15,2013-06-19 00:49:00,
2013-06-18 18:54:00,91.4,18.7,29.38,SSW,213,4.0,14.0,7,0.00,,,0.00,Wunderground v.1.15,2013-06-19 00:54:00,
2013-06-18 18:59:00,91.6,15.2,29.38,SSW,203,2.0,14.0,6,0.00,,,0.00,Wunderground v.1.15,2013-06-19 00:59:00,
2013-06-18 19:04:00,91.4,15.1,29.38,SW,221,3.0,13.0,6,0.00,,,0.00,Wunderground v.1.15,2013-06-19 01:04:00,
2013-06-18 19:09:00,90.7,14.6,29.38,SSW,213,2.0,13.0,6,0.00,,,0.00,Wunderground v.1.15,2013-06-19 01:09:00,
2013-06-18 19:14:00,90.3,14.3,29.38,SW,225,2.0,7.0,6,0.00,,,0.00,Wunderground v.1.15,2013-06-19 01:14:00,
2013-06-18 19:19:00,90.1,17.7,29.38,South,190,1.0,7.0,7,0.00,,,0.00,Wunderground v.1.15,2013-06-19 01:19:00,
2013-06-18 19:24:00,90.1,14.2,29.38,SSE,165,6.0,13.0,6,0.00,,,0.00,Wunderground v.1.15,2013-06-19 01:24:00,
2013-06-18 19:29:00,89.9,17.6,29.37,South,178,2.0,16.0,7,0.00,,,0.00,Wunderground v.1.15,2013-06-19 01:29:00,
2013-06-18 19:34:00,89.7,17.4,29.37,WNW,283,5.0,11.0,7,0.00,,,0.00,Wunderground v.1.15,2013-06-19 01:34:00,
2013-06-18 19:39:00,89.7,17.4,29.37,South,187,3.0,11.0,7,0.00,,,0.00,Wunderground v.1.15,2013-06-19 01:39:00,
2013-06-18 19:44:00,89.3,13.6,29.37,South,172,1.0,4.0,6,0.00,,,0.00,Wunderground v.1.15,2013-06-19 01:44:00,
2013-06-18 19:49:00,89.0,16.9,29.37,WSW,240,0.0,6.0,7,0.00,,,0.00,Wunderground v.1.15,2013-06-19 01:49:00,
2013-06-18 19:54:00,88.4,16.5,29.37,WSW,239,0.0,3.0,7,0.00,,,0.00,Wunderground v.1.15,2013-06-19 01:54:00,
2013-06-18 19:59:00,87.6,24.3,29.38,WSW,239,0.0,3.0,10,0.00,,,0.00,Wunderground v.1.15,2013-06-19 01:59:00,
2013-06-18 20:04:00,85.9,25.3,29.38,WSW,239,0.0,1.0,11,0.00,,,0.00,Wunderground v.1.15,2013-06-19 02:04:00,
2013-06-18 20:09:00,84.5,21.9,29.38,WSW,238,2.0,3.0,10,0.00,,,0.00,Wunderground v.1.15,2013-06-19 02:09:00,
2013-06-18 20:14:00,84.1,16.4,29.39,SSW,211,0.0,9.0,8,0.00,,,0.00,Wunderground v.1.15,2013-06-19 02:14:00,
2013-06-18 20:19:00,83.6,23.5,29.39,SSW,211,0.0,9.0,11,0.00,,,0.00,Wunderground v.1.15,2013-06-19 02:19:00,
2013-06-18 20:24:00,83.2,15.7,29.39,WSW,248,0.0,10.0,8,0.00,,,0.00,Wunderground v.1.15,2013-06-19 02:24:00,
2013-06-18 20:29:00,82.4,22.6,29.38,WSW,251,0.0,10.0,11,0.00,,,0.00,Wunderground v.1.15,2013-06-19 02:29:00,
2013-06-18 20:34:00,81.1,19.3,29.38,WSW,251,0.0,2.0,10,0.00,,,0.00,Wunderground v.1.15,2013-06-19 02:34:00,
2013-06-18 20:39:00,79.2,24.1,29.38,WSW,251,0.0,2.0,13,0.00,,,0.00,Wunderground v.1.15,2013-06-19 02:39:00,
2013-06-18 20:44:00,76.7,28.6,29.40,WSW,251,0.0,0.0,17,0.00,,,0.00,Wunderground v.1.15,2013-06-19 02:44:00,
2013-06-18 20:49:00,73.9,29.0,29.40,WSW,251,0.0,0.0,19,0.00,,,0.00,Wunderground v.1.15,2013-06-19 02:49:00,
2013-06-18 20:54:00,71.6,29.6,29.40,WSW,251,0.0,0.0,21,0.00,,,0.00,Wunderground v.1.15,2013-06-19 02:54:00,
2013-06-18 20:59:00,70.8,26.5,29.43,WSW,251,0.0,2.0,19,0.00,,,0.00,Wunderground v.1.15,2013-06-19 02:59:00,
2013-06-18 21:04:00,69.6,30.1,29.43,WSW,251,0.0,2.0,23,0.00,,,0.00,Wunderground v.1.15,2013-06-19 03:04:00,
2013-06-18 21:09:00,68.9,28.5,29.43,WSW,251,0.0,2.0,22,0.00,,,0.00,Wunderground v.1.15,2013-06-19 03:09:00,
2013-06-18 21:14:00,68.9,24.9,29.44,WSW,238,0.0,2.0,19,0.00,,,0.00,Wunderground v.1.15,2013-06-19 03:14:00,
2013-06-18 21:19:00,68.9,28.5,29.44,WSW,238,2.0,2.0,22,0.00,,,0.00,Wunderground v.1.15,2013-06-19 03:19:00,
2013-06-18 21:24:00,70.9,23.9,29.44,SW,233,0.0,4.0,17,0.00,,,0.00,Wunderground v.1.15,2013-06-19 03:24:00,
2013-06-18 21:29:00,72.0,18.4,29.42,SW,233,0.0,4.0,13,0.00,,,0.00,Wunderground v.1.15,2013-06-19 03:29:00,
2013-06-18 21:34:00,72.8,25.4,29.42,SW,233,0.0,2.0,17,0.00,,,0.00,Wunderground v.1.15,2013-06-19 03:34:00,
2013-06-18 21:39:00,72.8,17.2,29.42,SSW,207,1.0,5.0,12,0.00,,,0.00,Wunderground v.1.15,2013-06-19 03:39:00,
2013-06-18 21:45:00,75.3,12.5,29.42,SSW,196,3.0,10.0,9,0.00,,,0.00,Wunderground v.1.15,2013-06-19 03:45:00,
2013-06-18 21:50:00,77.7,11.6,29.42,South,188,5.0,5.0,8,0.00,,,0.00,Wunderground v.1.15,2013-06-19 03:50:00,
2013-06-18 21:55:00,79.4,12.9,29.42,SSE,167,9.0,10.0,8,0.00,,,0.00,Wunderground v.1.15,2013-06-19 03:55:00,
2013-06-18 22:00:00,80.5,10.7,29.40,South,175,5.0,5.0,7,0.00,,,0.00,Wunderground v.1.15,2013-06-19 04:00:00,
2013-06-18 22:01:00,80.7,10.9,29.40,SSW,193,3.0,6.0,7,0.00,,,0.00,Wunderground v.1.15,2013-06-19 04:01:00,
2013-06-18 22:06:00,81.2,11.2,29.40,SW,226,4.0,13.0,7,0.00,,,0.00,Wunderground v.1.15,2013-06-19 04:06:00,
2013-06-18 22:11:00,81.1,11.1,29.40,South,183,1.0,6.0,7,0.00,,,0.00,Wunderground v.1.15,2013-06-19 04:11:00,
2013-06-18 22:16:00,80.9,11.0,29.40,South,174,6.0,10.0,7,0.00,,,0.00,Wunderground v.1.15,2013-06-19 04:16:00,
2013-06-18 22:21:00,81.1,11.1,29.40,SSW,195,5.0,5.0,7,0.00,,,0.00,Wunderground v.1.15,2013-06-19 04:21:00,
2013-06-18 22:26:00,80.7,10.9,29.38,SSW,200,6.0,12.0,7,0.00,,,0.00,Wunderground v.1.15,2013-06-19 04:26:00,
2013-06-18 22:31:00,80.9,11.0,29.38,SSE,153,8.0,13.0,7,0.00,,,0.00,Wunderground v.1.15,2013-06-19 04:31:00,
2013-06-18 22:36:00,81.2,11.2,29.38,SSW,202,3.0,13.0,7,0.00,,,0.00,Wunderground v.1.15,2013-06-19 04:36:00,
2013-06-18 22:41:00,80.7,10.9,29.38,South,173,11.0,12.0,7,0.00,,,0.00,Wunderground v.1.15,2013-06-19 04:41:00,
2013-06-18 22:46:00,80.7,10.9,29.38,SSW,198,7.0,17.0,7,0.00,,,0.00,Wunderground v.1.15,2013-06-19 04:46:00,
2013-06-18 22:52:00,80.5,10.7,29.38,South,174,5.0,16.0,7,0.00,,,0.00,Wunderground v.1.15,2013-06-19 04:52:00,
2013-06-18 22:57:00,80.7,7.4,29.37,SSE,166,16.0,16.0,6,0.00,,,0.00,Wunderground v.1.15,2013-06-19 04:57:00,
2013-06-18 23:02:00,81.1,11.1,29.37,SSW,211,9.0,17.0,7,0.00,,,0.00,Wunderground v.1.15,2013-06-19 05:02:00,
2013-06-18 23:07:00,81.2,7.8,29.37,South,184,8.0,17.0,6,0.00,,,0.00,Wunderground v.1.15,2013-06-19 05:07:00,
2013-06-18 23:12:00,81.4,7.9,29.38,South,174,7.0,12.0,6,0.00,,,0.00,Wunderground v.1.15,2013-06-19 05:12:00,
2013-06-18 23:17:00,81.2,11.2,29.38,South,173,6.0,12.0,7,0.00,,,0.00,Wunderground v.1.15,2013-06-19 05:17:00,
2013-06-18 23:22:00,81.1,11.1,29.38,South,187,10.0,10.0,7,0.00,,,0.00,Wunderground v.1.15,2013-06-19 05:22:00,
2013-06-18 23:27:00,80.9,7.6,29.37,South,185,3.0,14.0,6,0.00,,,0.00,Wunderground v.1.15,2013-06-19 05:27:00,
2013-06-18 23:32:00,80.9,11.0,29.37,SSW,202,0.0,6.0,7,0.00,,,0.00,Wunderground v.1.15,2013-06-19 05:32:00,
2013-06-18 23:37:00,80.9,11.0,29.37,South,190,1.0,10.0,7,0.00,,,0.00,Wunderground v.1.15,2013-06-19 05:37:00,
2013-06-18 23:42:00,80.5,10.7,29.37,SW,216,0.0,6.0,7,0.00,,,0.00,Wunderground v.1.15,2013-06-19 05:42:00,
2013-06-18 23:47:00,80.1,10.4,29.37,SW,224,3.0,6.0,7,0.00,,,0.00,Wunderground v.1.15,2013-06-19 05:47:00,
2013-06-18 23:52:00,79.9,20.7,29.37,WSW,250,0.0,6.0,11,0.00,,,0.00,Wunderground v.1.15,2013-06-19 05:52:00,
2013-06-18 23:57:00,77.7,19.0,29.37,NNW,346,3.0,6.0,11,0.00,,,0.00,Wunderground v.1.15,2013-06-19 05:57:00,